Gaithersburg, MD (20877)

11:39 PM EDT on April 20, 2015 (GMT -0400)
Muddy Branch Park | | Change Station
CLOSE
Current Station
Personal Weather Station
Location: Gaithersburg, MD
Elevation: 394 ft
Nearby Weather Stations

Elev 394 ft 39.12 °N, 77.21 °W | Updated 25 seconds ago

Rain
Rain
63.1 °F
Feels Like 63.1 °F
N
3.0
Wind Variable Wind from NNW
Gusts 9.0 mph

Today
High -- | Low -- °F
--% Chance of Precip.
Yesterday
High -- | Low -- °F
Precip. -- in
6:25 AM 7:50 PM
Waxing Crescent, 8% visible
Pressure 29.61 in
Visibility 10.0 miles
Clouds Few 3800 ft
Mostly Cloudy 9000 ft
Dew Point 59 °F
Humidity 86%
Rainfall 0.79 in
Snow Depth Not available.
UV 0 out of 12
Pollen 2.90 out of 12
Air Quality Not available.
Flu Activity Regional
METAR KGAI 210335Z AUTO 29008KT 10SM FEW038 BKN090 17/13 A2961 RMK AO1

More Conditions Fewer Conditions

Pressure 29.61 in
Visibility 10.0 miles
Clouds Few 3800 ft
Mostly Cloudy 9000 ft
Dew Point 59 °F
Humidity 86%
Rainfall 0.79 in
Snow Depth Not available.
UV 0 out of 12
Pollen 2.90 out of 12
Air Quality Not available.
Flu Activity Regional
METAR KGAI 210335Z AUTO 29008KT 10SM FEW038 BKN090 17/13 A2961 RMK AO1

More Conditions Fewer Conditions

The Storm Prediction Center has issued an enhanced risk of severe weather for parts of the Mid-Atlantic and Northeast, including Washington, D.C. Isolated tornadoes cannot be ruled out, but the biggest threat will come from strong thunderstorms producing strong winds and large hail. Tornado Watches are also posted for parts of Georgia, South Carolina, and North Carolina.

10-Day Weather Forecast

Almanac

Astronomy

Apr. 20, 2015 Rise Set
Actual Time
Civil Twilight
Nautical Twilight
Astronomical Twilight
Moon
Length of Visible Light
Length of Day
Tomorrow will be .
, % of the Moon is Illuminated

Today's Extremes

State Highs State Lows

Community

WunderPhotos

Upload Photos

1,815,296 photos uploaded!

WunderBlogs® & News

Nearby

Air Quality

  Air Quality AQ Index Pollutant
Not available.

Snow Depth

Station Depth Elevation

Earthquake Activity

City Distance Mag. Time & Date
Minimum magnitude displayed is 2.5.

Coastal Water Temperatures

Place Temperature

Stations

Nearby Weather Stations

Station Location Temp. Windchill Dew Point Humidity Wind Precip. Elev Updated Type